createdAt,value
2023-02-17T00:01:50.499Z,15.83
2023-02-17T00:04:12.078Z,15.03
2023-02-17T00:06:33.590Z,14.70
2023-02-17T00:08:57.676Z,15.63
2023-02-17T00:11:19.588Z,15.57
2023-02-17T00:13:42.440Z,15.73
2023-02-17T00:16:11.601Z,15.83
2023-02-17T00:18:33.145Z,15.43
2023-02-17T00:20:54.616Z,15.90
2023-02-17T00:23:16.252Z,15.60
2023-02-17T00:25:38.413Z,16.67
2023-02-17T00:27:59.902Z,15.53
2023-02-17T00:30:21.483Z,15.23
2023-02-17T00:32:42.990Z,16.27
2023-02-17T00:35:04.616Z,15.93
2023-02-17T00:37:26.078Z,16.00
2023-02-17T00:39:47.633Z,15.33
2023-02-17T00:42:09.168Z,15.93
2023-02-17T00:44:30.790Z,16.43
2023-02-17T00:46:52.364Z,16.23
2023-02-17T00:49:24.965Z,16.73
2023-02-17T00:51:47.228Z,16.13
2023-02-17T00:54:08.704Z,15.80
2023-02-17T00:56:30.116Z,14.27
2023-02-17T00:58:51.563Z,15.00
2023-02-17T01:01:13.167Z,15.37
2023-02-17T01:03:34.758Z,15.20
2023-02-17T01:05:57.096Z,15.37
2023-02-17T01:08:19.115Z,15.00
2023-02-17T01:10:42.699Z,14.97
2023-02-17T01:13:04.288Z,14.73
2023-02-17T01:15:25.706Z,14.47
2023-02-17T01:17:47.179Z,16.00
2023-02-17T01:20:08.981Z,14.80
2023-02-17T01:22:30.549Z,14.90
2023-02-17T01:24:52.005Z,15.43
2023-02-17T01:27:13.482Z,14.90
2023-02-17T01:29:34.962Z,15.30
2023-02-17T01:31:56.603Z,15.57
2023-02-17T01:34:18.124Z,15.87
2023-02-17T01:36:39.594Z,15.83
2023-02-17T01:39:01.069Z,15.27
2023-02-17T01:41:26.995Z,16.33
2023-02-17T01:44:24.998Z,15.67
2023-02-17T01:46:51.524Z,15.50
2023-02-17T01:49:39.630Z,15.57
2023-02-17T01:52:25.361Z,15.40
2023-02-17T01:54:51.372Z,14.87
2023-02-17T01:57:17.899Z,15.03
2023-02-17T01:59:40.940Z,13.27
2023-02-17T02:02:05.437Z,13.93
2023-02-17T02:04:32.129Z,12.90
2023-02-17T02:06:53.989Z,12.20
2023-02-17T02:09:41.747Z,11.20
2023-02-17T02:12:15.820Z,11.00
2023-02-17T02:14:37.290Z,11.40
2023-02-17T02:16:58.648Z,11.07
2023-02-17T02:19:40.582Z,10.70
2023-02-17T02:22:20.425Z,10.43
2023-02-17T02:25:00.428Z,11.87
2023-02-17T02:27:45.418Z,13.13
2023-02-17T02:30:42.608Z,13.63
2023-02-17T02:33:06.740Z,13.37
2023-02-17T02:35:47.341Z,14.93
2023-02-17T02:38:24.594Z,15.60
2023-02-17T02:44:22.937Z,17.13
2023-02-17T02:46:44.486Z,15.83
2023-02-17T02:49:07.752Z,16.00
2023-02-17T02:51:37.749Z,16.60
2023-02-17T02:54:06.679Z,15.50
2023-02-17T02:56:53.258Z,15.77
2023-02-17T02:59:14.656Z,15.13
2023-02-17T03:01:51.720Z,15.70
2023-02-17T03:04:36.668Z,14.87
2023-02-17T03:07:28.084Z,14.20
2023-02-17T03:09:52.807Z,14.33
2023-02-17T03:12:15.003Z,13.27
2023-02-17T03:14:38.333Z,14.10
2023-02-17T03:17:00.023Z,14.87
2023-02-17T03:19:24.688Z,14.30
2023-02-17T03:21:59.211Z,14.60
2023-02-17T03:24:20.735Z,14.27
2023-02-17T03:26:42.213Z,16.30
2023-02-17T03:29:04.256Z,15.53
2023-02-17T03:31:25.816Z,14.97
2023-02-17T03:33:47.330Z,15.40
2023-02-17T03:36:08.882Z,15.93
2023-02-17T03:38:30.362Z,17.00
2023-02-17T03:40:53.780Z,15.47
2023-02-17T03:43:17.898Z,15.07
2023-02-17T03:45:39.634Z,14.93
2023-02-17T03:48:01.084Z,15.80
2023-02-17T03:50:22.633Z,16.77
2023-02-17T03:52:44.923Z,16.30
2023-02-17T03:55:06.649Z,16.20
2023-02-17T03:57:28.139Z,16.23
2023-02-17T03:59:49.648Z,16.80
2023-02-17T04:02:11.119Z,16.27
2023-02-17T04:04:32.640Z,15.67
2023-02-17T04:06:54.270Z,16.27
2023-02-17T04:09:15.785Z,17.17
2023-02-17T04:11:37.526Z,17.07
2023-02-17T04:13:58.953Z,16.53
2023-02-17T04:16:20.490Z,15.87
2023-02-17T04:18:42.248Z,15.53
2023-02-17T04:21:04.017Z,16.57
2023-02-17T04:23:25.798Z,16.10
2023-02-17T04:25:47.958Z,16.63
2023-02-17T04:28:09.700Z,16.33
2023-02-17T04:30:31.627Z,15.90
2023-02-17T04:32:53.191Z,16.00
2023-02-17T04:35:14.713Z,12.07
2023-02-17T04:37:36.155Z,14.67
2023-02-17T04:39:57.690Z,16.13
2023-02-17T04:42:19.132Z,13.83
2023-02-17T04:44:40.597Z,13.90
2023-02-17T04:47:02.086Z,13.60
2023-02-17T04:49:23.503Z,14.47
2023-02-17T04:51:44.966Z,13.83
2023-02-17T04:54:06.416Z,13.10
2023-02-17T04:56:27.864Z,11.90
2023-02-17T04:58:49.661Z,13.27
2023-02-17T05:01:11.222Z,13.13
2023-02-17T05:03:32.735Z,11.23
2023-02-17T05:05:54.391Z,12.03
2023-02-17T05:08:15.997Z,11.70
2023-02-17T05:10:37.477Z,11.47
2023-02-17T05:12:58.898Z,10.90
2023-02-17T05:15:20.377Z,9.37
2023-02-17T05:17:41.846Z,10.63
2023-02-17T05:20:04.506Z,9.17
2023-02-17T05:22:26.626Z,10.37
2023-02-17T05:24:48.062Z,9.17
2023-02-17T05:27:09.537Z,9.90
2023-02-17T05:29:31.009Z,9.13
2023-02-17T05:31:52.567Z,10.07
2023-02-17T05:34:14.034Z,9.27
2023-02-17T05:36:35.505Z,8.63
2023-02-17T05:38:57.134Z,9.23
2023-02-17T05:41:19.776Z,8.90
2023-02-17T05:43:41.235Z,9.70
2023-02-17T05:46:06.398Z,8.80
2023-02-17T05:48:28.099Z,8.60
2023-02-17T05:50:49.656Z,8.67
2023-02-17T05:53:11.274Z,8.07
2023-02-17T05:55:32.746Z,9.07
2023-02-17T05:57:54.174Z,8.90
2023-02-17T06:00:16.120Z,6.90
2023-02-17T06:02:37.567Z,8.73
2023-02-17T06:04:59.080Z,9.07
2023-02-17T06:07:20.660Z,8.87
2023-02-17T06:09:42.085Z,9.80
2023-02-17T06:12:04.116Z,9.10
2023-02-17T06:14:25.588Z,8.53
2023-02-17T06:16:47.068Z,9.83
2023-02-17T06:19:08.514Z,9.30
2023-02-17T06:21:29.970Z,9.27
2023-02-17T06:23:51.406Z,8.73
2023-02-17T06:26:12.999Z,8.50
2023-02-17T06:28:35.195Z,8.70
2023-02-17T06:30:56.785Z,8.93
2023-02-17T06:33:18.270Z,8.60
2023-02-17T06:35:39.889Z,8.93
2023-02-17T06:38:01.439Z,8.30
2023-02-17T06:40:22.972Z,7.63
2023-02-17T06:42:44.527Z,8.27
2023-02-17T06:45:06.348Z,8.97
2023-02-17T06:47:27.826Z,8.13
2023-02-17T06:49:49.260Z,8.17
2023-02-17T06:52:10.746Z,8.60
2023-02-17T06:54:32.218Z,8.53
2023-02-17T06:56:53.696Z,7.30
2023-02-17T06:59:15.199Z,8.33
2023-02-17T07:01:36.674Z,7.87
2023-02-17T07:03:58.366Z,7.40
2023-02-17T07:06:20.193Z,8.03
2023-02-17T07:08:41.708Z,8.90
2023-02-17T07:11:10.722Z,8.00
2023-02-17T07:13:32.330Z,8.03
2023-02-17T07:15:53.774Z,9.10
2023-02-17T07:18:15.307Z,8.47
2023-02-17T07:20:39.102Z,8.30
2023-02-17T07:23:00.978Z,8.60
2023-02-17T07:25:22.405Z,7.93
2023-02-17T07:27:43.933Z,8.97
2023-02-17T07:30:06.454Z,9.23
2023-02-17T07:32:28.093Z,8.77
2023-02-17T07:34:49.560Z,8.63
2023-02-17T07:37:11.032Z,8.53
2023-02-17T07:39:33.888Z,7.10
2023-02-17T07:42:00.627Z,7.13
2023-02-17T07:44:22.088Z,8.87
2023-02-17T07:46:43.694Z,8.30
2023-02-17T07:49:05.962Z,8.63
2023-02-17T07:51:27.641Z,7.33
2023-02-17T07:53:50.550Z,7.57
2023-02-17T07:56:14.914Z,8.23
2023-02-17T07:58:39.482Z,7.83
2023-02-17T08:01:12.464Z,7.80
2023-02-17T08:03:34.505Z,6.57
2023-02-17T08:05:55.950Z,5.57
2023-02-17T08:08:36.092Z,6.57
2023-02-17T08:11:19.713Z,6.33
2023-02-17T08:13:41.198Z,5.73
2023-02-17T08:16:02.678Z,5.57
2023-02-17T08:18:24.249Z,6.30
2023-02-17T08:20:45.726Z,5.53
2023-02-17T08:23:07.189Z,6.03
2023-02-17T08:25:31.832Z,6.37
2023-02-17T08:27:54.503Z,5.73
2023-02-17T08:30:16.159Z,5.60
2023-02-17T08:32:37.752Z,5.80
2023-02-17T08:34:59.225Z,5.77
2023-02-17T08:37:20.672Z,5.07
2023-02-17T08:39:42.139Z,5.43
2023-02-17T08:42:04.850Z,5.77
2023-02-17T08:44:26.868Z,5.00
2023-02-17T08:46:50.213Z,4.67
2023-02-17T08:49:11.842Z,4.73
2023-02-17T08:51:34.089Z,5.57
2023-02-17T08:53:58.791Z,4.87
2023-02-17T08:56:23.986Z,5.20
2023-02-17T08:58:45.459Z,6.00
2023-02-17T09:01:06.974Z,5.57
2023-02-17T09:03:28.579Z,6.03
2023-02-17T09:05:53.420Z,5.67
2023-02-17T09:08:15.027Z,5.20
2023-02-17T09:10:37.958Z,6.10
2023-02-17T09:12:59.504Z,5.17
2023-02-17T09:15:20.965Z,5.80
2023-02-17T09:17:42.736Z,6.93
2023-02-17T09:20:16.216Z,6.17
2023-02-17T09:22:44.516Z,5.60
2023-02-17T09:25:06.304Z,5.87
2023-02-17T09:27:27.880Z,6.30
2023-02-17T09:29:49.317Z,6.20
2023-02-17T09:32:10.960Z,6.00
2023-02-17T09:34:36.164Z,6.30
2023-02-17T09:36:57.637Z,6.17
2023-02-17T09:39:19.100Z,5.57
2023-02-17T09:41:45.389Z,6.13
2023-02-17T09:44:21.972Z,6.00
2023-02-17T09:47:11.001Z,5.97
2023-02-17T09:49:57.087Z,6.17
2023-02-17T09:52:27.696Z,6.30
2023-02-17T09:55:04.924Z,5.50
2023-02-17T09:57:29.379Z,6.20
2023-02-17T09:59:58.923Z,6.40
2023-02-17T10:02:52.674Z,6.50
2023-02-17T10:05:18.499Z,5.00
2023-02-17T10:07:46.017Z,5.60
2023-02-17T10:10:18.145Z,6.00
2023-02-17T10:12:49.307Z,5.80
2023-02-17T10:15:18.131Z,5.20
2023-02-17T10:17:57.538Z,5.53
2023-02-17T10:20:40.790Z,4.90
2023-02-17T10:23:23.788Z,4.10
2023-02-17T10:26:13.565Z,5.30
2023-02-17T10:28:53.543Z,5.03
2023-02-17T10:31:52.522Z,5.03
2023-02-17T10:34:32.896Z,4.70
2023-02-17T10:37:12.016Z,4.93
2023-02-17T10:39:51.729Z,4.40
2023-02-17T10:42:24.919Z,4.13
2023-02-17T10:44:48.188Z,4.07
2023-02-17T10:47:10.771Z,3.83
2023-02-17T10:49:37.104Z,3.97
2023-02-17T10:52:15.705Z,4.33
2023-02-17T10:54:42.251Z,3.80
2023-02-17T10:57:08.627Z,3.87
2023-02-17T10:59:35.231Z,3.43
2023-02-17T11:02:18.238Z,4.20
2023-02-17T11:04:52.054Z,3.67
2023-02-17T11:07:16.026Z,4.40
2023-02-17T11:09:44.954Z,4.07
2023-02-17T11:12:13.793Z,4.73
2023-02-17T11:14:37.181Z,4.10
2023-02-17T11:17:04.523Z,4.97
2023-02-17T11:19:34.002Z,4.60
2023-02-17T11:21:58.921Z,4.13
2023-02-17T11:24:20.446Z,3.93
2023-02-17T11:26:41.949Z,5.37
2023-02-17T11:29:20.928Z,4.40
2023-02-17T11:31:42.574Z,4.87
2023-02-17T11:34:15.982Z,4.57
2023-02-17T11:36:37.451Z,4.20
2023-02-17T11:39:00.879Z,5.20
2023-02-17T11:41:23.452Z,6.67
2023-02-17T11:43:58.614Z,4.33
2023-02-17T11:46:56.883Z,6.07
2023-02-17T11:49:44.129Z,4.90
2023-02-17T11:52:08.489Z,5.03
2023-02-17T11:54:50.504Z,4.20
2023-02-17T11:57:36.856Z,4.70
2023-02-17T12:00:14.033Z,4.50
2023-02-17T12:02:59.915Z,4.57
2023-02-17T12:05:52.509Z,3.97
2023-02-17T12:08:32.578Z,3.83
2023-02-17T12:11:25.959Z,4.00
2023-02-17T12:14:07.836Z,3.40
2023-02-17T12:16:48.364Z,4.10
2023-02-17T12:19:57.915Z,3.78
2023-02-17T12:22:26.831Z,3.97
2023-02-17T12:25:14.303Z,3.83
2023-02-17T12:28:00.101Z,3.83
2023-02-17T12:30:38.653Z,4.20
2023-02-17T12:33:27.522Z,3.78
2023-02-17T12:36:01.119Z,4.07
2023-02-17T12:38:27.028Z,4.03
2023-02-17T12:40:55.200Z,13.07
2023-02-17T12:43:27.614Z,3.85
2023-02-17T12:45:49.945Z,5.00
2023-02-17T12:48:24.427Z,4.03
2023-02-17T12:51:10.079Z,3.97
2023-02-17T12:53:43.317Z,3.30
2023-02-17T12:56:23.200Z,3.78
2023-02-17T12:58:44.698Z,3.78
2023-02-17T13:01:18.550Z,2.97
2023-02-17T13:03:40.197Z,3.30
2023-02-17T13:06:20.109Z,3.35
2023-02-17T13:08:58.456Z,3.28
2023-02-17T13:11:33.528Z,3.70
2023-02-17T13:13:55.022Z,3.60
2023-02-17T13:16:16.817Z,4.43
2023-02-17T13:18:41.619Z,3.17
2023-02-17T13:21:24.970Z,3.63
2023-02-17T13:24:02.132Z,4.00
2023-02-17T13:26:27.193Z,3.33
2023-02-17T13:28:50.730Z,3.70
2023-02-17T13:31:24.839Z,3.80
2023-02-17T13:33:49.526Z,3.40
2023-02-17T13:36:18.170Z,3.30
2023-02-17T13:38:39.615Z,3.67
2023-02-17T13:41:04.491Z,3.57
2023-02-17T13:43:28.912Z,3.50
2023-02-17T13:45:59.820Z,3.45
2023-02-17T13:48:21.223Z,2.80
2023-02-17T13:50:54.725Z,3.72
2023-02-17T13:53:37.538Z,3.17
2023-02-17T13:56:02.794Z,3.30
2023-02-17T13:58:30.723Z,3.28
2023-02-17T14:00:52.993Z,3.00
2023-02-17T14:03:26.835Z,3.00
2023-02-17T14:05:50.485Z,2.87
2023-02-17T14:08:20.924Z,2.55
2023-02-17T14:10:42.772Z,2.70
2023-02-17T14:13:04.535Z,2.37
2023-02-17T14:15:28.819Z,3.13
2023-02-17T14:17:51.061Z,2.90
2023-02-17T14:20:31.044Z,2.23
2023-02-17T14:23:05.140Z,2.75
2023-02-17T14:25:29.725Z,2.63
2023-02-17T14:27:51.525Z,2.17
2023-02-17T14:30:29.210Z,3.10
2023-02-17T14:33:21.233Z,5.80
2023-02-17T14:36:04.453Z,2.63
2023-02-17T14:38:31.845Z,2.03
2023-02-17T14:40:55.736Z,2.10
2023-02-17T14:43:17.239Z,2.40
2023-02-17T14:45:38.708Z,2.53
2023-02-17T14:48:00.154Z,2.57
2023-02-17T14:50:21.744Z,2.07
2023-02-17T14:52:48.338Z,2.30
2023-02-17T14:55:31.476Z,2.10
2023-02-17T14:57:53.930Z,2.13
2023-02-17T15:00:15.886Z,2.60
2023-02-17T15:02:37.579Z,2.30
2023-02-17T15:04:59.104Z,2.10
2023-02-17T15:07:21.109Z,2.27
2023-02-17T15:09:44.970Z,2.13
2023-02-17T15:12:14.846Z,2.50
2023-02-17T15:14:36.269Z,2.77
2023-02-17T15:16:57.920Z,2.30
2023-02-17T15:19:19.485Z,2.80
2023-02-17T15:21:46.085Z,2.53
2023-02-17T15:24:34.951Z,2.00
2023-02-17T15:26:56.476Z,2.20
2023-02-17T15:29:23.151Z,2.33
2023-02-17T15:31:45.987Z,1.97
2023-02-17T15:34:16.460Z,2.37
2023-02-17T15:36:37.939Z,2.03
2023-02-17T15:38:59.459Z,2.20
2023-02-17T15:41:24.420Z,1.67
2023-02-17T15:43:47.853Z,1.90
2023-02-17T15:46:15.179Z,1.70
2023-02-17T15:48:36.700Z,1.77
2023-02-17T15:50:58.167Z,1.60
2023-02-17T15:53:19.807Z,1.63
2023-02-17T15:55:41.785Z,1.90
2023-02-17T15:58:05.983Z,1.67
2023-02-17T16:00:29.732Z,1.60
2023-02-17T16:02:51.818Z,1.30
2023-02-17T16:05:15.828Z,1.30
2023-02-17T16:07:38.488Z,1.63
2023-02-17T16:10:00.015Z,1.50
2023-02-17T16:12:27.007Z,1.70
2023-02-17T16:14:48.712Z,1.90
2023-02-17T16:17:15.975Z,1.70
2023-02-17T16:19:37.421Z,1.47
2023-02-17T16:21:58.984Z,1.50
2023-02-17T16:24:20.492Z,1.80
2023-02-17T16:26:43.217Z,1.73
2023-02-17T16:29:14.819Z,1.77
2023-02-17T16:31:36.352Z,2.23
2023-02-17T16:34:00.367Z,2.73
2023-02-17T16:36:21.945Z,4.13
2023-02-17T16:38:44.149Z,7.53
2023-02-17T16:41:05.620Z,2.67
2023-02-17T16:43:27.719Z,1.93
2023-02-17T16:45:55.495Z,4.57
2023-02-17T16:48:17.823Z,2.00
2023-02-17T16:50:39.371Z,2.87
2023-02-17T16:53:04.118Z,2.20
2023-02-17T16:55:30.309Z,2.83
2023-02-17T16:57:52.288Z,10.53
2023-02-17T17:00:26.355Z,6.83
2023-02-17T17:06:30.329Z,1.97
2023-02-17T17:08:53.069Z,2.00
2023-02-17T17:11:17.388Z,1.90
2023-02-17T17:13:38.859Z,1.80
2023-02-17T17:16:00.360Z,1.87
2023-02-17T17:18:22.037Z,1.80
2023-02-17T17:20:43.497Z,1.80
2023-02-17T17:23:11.894Z,2.07
2023-02-17T17:25:35.519Z,1.77
2023-02-17T17:27:57.504Z,1.47
2023-02-17T17:30:21.631Z,1.97
2023-02-17T17:32:43.318Z,2.10
2023-02-17T17:35:04.993Z,2.30
2023-02-17T17:37:26.498Z,1.90
2023-02-17T17:39:47.984Z,2.30
2023-02-17T17:42:11.208Z,2.27
2023-02-17T17:44:33.296Z,2.13
2023-02-17T17:46:54.782Z,2.30
2023-02-17T17:49:18.186Z,2.40
2023-02-17T17:51:40.907Z,2.17
2023-02-17T17:54:02.774Z,2.73
2023-02-17T17:56:34.281Z,2.30
2023-02-17T17:58:56.809Z,2.63
2023-02-17T18:01:46.373Z,2.23
2023-02-17T18:04:08.840Z,1.80
2023-02-17T18:06:35.454Z,2.20
2023-02-17T18:09:02.460Z,2.33
2023-02-17T18:11:24.729Z,2.50
2023-02-17T18:13:50.611Z,2.57
2023-02-17T18:16:13.249Z,2.50
2023-02-17T18:18:34.745Z,2.40
2023-02-17T18:20:56.317Z,3.10
2023-02-17T18:23:17.776Z,2.50
2023-02-17T18:25:39.198Z,3.60
2023-02-17T18:28:00.777Z,2.90
2023-02-17T18:30:23.644Z,2.67
2023-02-17T18:32:45.333Z,2.30
2023-02-17T18:35:07.300Z,2.00
2023-02-17T18:37:28.839Z,2.73
2023-02-17T18:39:50.286Z,3.20
2023-02-17T18:42:11.813Z,2.13
2023-02-17T18:44:33.654Z,2.20
2023-02-17T18:46:55.116Z,2.00
2023-02-17T18:49:16.669Z,6.23
2023-02-17T18:51:38.166Z,4.63
2023-02-17T18:54:01.533Z,2.60
2023-02-17T18:56:27.547Z,2.47
2023-02-17T18:58:50.458Z,2.50
2023-02-17T19:01:16.952Z,2.43
2023-02-17T19:03:38.437Z,2.40
2023-02-17T19:06:08.929Z,2.30
2023-02-17T19:08:30.924Z,2.90
2023-02-17T19:10:52.891Z,3.17
2023-02-17T19:13:14.354Z,2.80
2023-02-17T19:15:37.905Z,3.10
2023-02-17T19:17:59.645Z,3.07
2023-02-17T19:20:21.095Z,3.20
2023-02-17T19:22:42.693Z,3.07
2023-02-17T19:25:04.853Z,3.10
2023-02-17T19:27:26.352Z,3.73
2023-02-17T19:29:47.918Z,3.20
2023-02-17T19:32:09.408Z,2.90
2023-02-17T19:34:31.517Z,2.90
2023-02-17T19:36:53.707Z,3.40
2023-02-17T19:39:15.235Z,3.23
2023-02-17T19:41:36.667Z,3.03
2023-02-17T19:43:58.118Z,2.80
2023-02-17T19:46:25.691Z,3.17
2023-02-17T19:48:47.226Z,2.90
2023-02-17T19:51:09.969Z,3.23
2023-02-17T19:53:33.188Z,3.67
2023-02-17T19:55:54.638Z,3.47
2023-02-17T19:58:16.100Z,3.93
2023-02-17T20:00:37.648Z,4.23
2023-02-17T20:02:59.188Z,4.10
2023-02-17T20:05:20.637Z,4.30
2023-02-17T20:07:42.126Z,3.93
2023-02-17T20:10:06.204Z,4.07
2023-02-17T20:12:27.679Z,3.70
2023-02-17T20:14:49.143Z,3.60
2023-02-17T20:17:10.702Z,3.80
2023-02-17T20:19:32.169Z,3.37
2023-02-17T20:21:53.959Z,3.97
2023-02-17T20:24:15.646Z,3.80
2023-02-17T20:26:41.466Z,4.13
2023-02-17T20:29:03.498Z,3.47
2023-02-17T20:31:26.818Z,3.10
2023-02-17T20:33:48.718Z,3.10
2023-02-17T20:36:11.797Z,5.47
2023-02-17T20:38:33.343Z,4.83
2023-02-17T20:40:54.777Z,5.67
2023-02-17T20:43:16.642Z,5.37
2023-02-17T20:45:39.729Z,5.47
2023-02-17T20:48:01.419Z,4.80
2023-02-17T20:50:22.902Z,5.17
2023-02-17T20:52:45.282Z,5.30
2023-02-17T20:55:07.006Z,5.77
2023-02-17T20:57:28.493Z,5.53
2023-02-17T20:59:50.455Z,4.77
2023-02-17T21:02:12.027Z,5.20
2023-02-17T21:04:33.469Z,5.33
2023-02-17T21:06:54.968Z,5.30
2023-02-17T21:09:18.292Z,5.57
2023-02-17T21:11:40.009Z,6.73
2023-02-17T21:14:01.567Z,7.03
2023-02-17T21:16:27.963Z,5.67
2023-02-17T21:18:49.482Z,6.63
2023-02-17T21:21:11.921Z,11.60
2023-02-17T21:23:33.440Z,6.60
2023-02-17T21:25:54.861Z,5.77
2023-02-17T21:28:17.602Z,6.90
2023-02-17T21:30:39.149Z,6.33
2023-02-17T21:33:00.852Z,6.90
2023-02-17T21:35:22.325Z,5.87
2023-02-17T21:37:43.891Z,6.47
2023-02-17T21:40:09.583Z,6.53
2023-02-17T21:42:49.419Z,5.90
2023-02-17T21:45:10.887Z,6.53
2023-02-17T21:47:32.968Z,6.70
2023-02-17T21:49:54.896Z,6.43
2023-02-17T21:52:16.337Z,8.17
2023-02-17T21:54:37.883Z,5.90
2023-02-17T21:56:59.296Z,7.60
2023-02-17T21:59:20.828Z,7.47
2023-02-17T22:01:42.422Z,5.90
2023-02-17T22:04:04.183Z,6.43
2023-02-17T22:06:31.608Z,7.50
2023-02-17T22:08:53.511Z,6.27
2023-02-17T22:11:26.236Z,7.00
2023-02-17T22:13:48.096Z,6.27
2023-02-17T22:16:09.942Z,7.60
2023-02-17T22:18:31.621Z,5.73
2023-02-17T22:20:53.074Z,5.33
2023-02-17T22:23:14.508Z,7.30
2023-02-17T22:25:40.904Z,7.13
2023-02-17T22:28:02.350Z,7.13
2023-02-17T22:30:24.745Z,8.10
2023-02-17T22:32:46.276Z,7.57
2023-02-17T22:35:07.917Z,7.37
2023-02-17T22:37:29.414Z,7.77
2023-02-17T22:39:55.505Z,8.70
2023-02-17T22:42:16.937Z,6.77
2023-02-17T22:44:38.439Z,7.63
2023-02-17T22:46:59.866Z,6.90
2023-02-17T22:49:21.304Z,8.03
2023-02-17T22:51:42.807Z,7.47
2023-02-17T22:54:05.697Z,8.20
2023-02-17T22:56:27.845Z,7.23
2023-02-17T22:58:55.314Z,7.00
2023-02-17T23:01:20.753Z,8.13
2023-02-17T23:03:42.983Z,7.07
2023-02-17T23:06:08.663Z,6.97
2023-02-17T23:08:30.397Z,7.07
2023-02-17T23:10:51.860Z,7.73
2023-02-17T23:13:13.304Z,7.27
2023-02-17T23:15:40.711Z,6.67
2023-02-17T23:18:02.160Z,7.40
2023-02-17T23:20:24.892Z,6.23
2023-02-17T23:22:46.324Z,7.57
2023-02-17T23:25:08.085Z,7.60
2023-02-17T23:27:29.517Z,7.63
2023-02-17T23:29:50.978Z,8.40
2023-02-17T23:32:12.544Z,6.87
2023-02-17T23:34:34.417Z,7.30
2023-02-17T23:36:56.540Z,5.43
2023-02-17T23:39:18.040Z,7.20
2023-02-17T23:41:39.713Z,6.47
2023-02-17T23:44:01.371Z,6.97
2023-02-17T23:46:22.909Z,6.47
2023-02-17T23:48:44.454Z,7.57
2023-02-17T23:51:06.088Z,7.60
2023-02-17T23:53:28.437Z,6.50
2023-02-17T23:55:49.920Z,6.77
2023-02-17T23:58:11.359Z,7.33
